Time,TemperatureF,DewpointF,PressureIn,WindDirection,WindDirectionDegrees,WindSpeedMPH,WindSpeedGustMPH,Humidity,HourlyPrecipIn,Conditions,Clouds,dailyrainin,SoftwareType,DateUTC
2013-02-02 00:02:00,25.0,16.0,-100.00,SW,230,6.0,7.0,67,0.00,,,-99.99,,2013-02-02 06:02:00,
2013-02-02 00:12:00,25.0,16.0,-100.00,SW,230,3.0,7.0,67,0.00,,,-99.99,,2013-02-02 06:12:00,
2013-02-02 00:21:00,26.0,16.0,-100.00,SSW,200,4.0,5.0,67,0.00,,,-99.99,,2013-02-02 06:21:00,
2013-02-02 00:31:00,26.0,16.0,-100.00,SSW,205,4.0,6.0,67,0.00,,,-99.99,,2013-02-02 06:31:00,
2013-02-02 00:41:00,26.0,16.0,-100.00,SSW,205,4.0,6.0,67,0.00,,,-99.99,,2013-02-02 06:41:00,
2013-02-02 00:51:00,25.0,16.0,-100.00,SW,225,4.0,6.0,67,0.00,,,-99.99,,2013-02-02 06:51:00,
2013-02-02 01:02:00,25.0,16.0,-100.00,SW,225,4.0,6.0,67,0.00,,,-99.99,,2013-02-02 07:02:00,
2013-02-02 01:11:00,25.0,16.0,-100.00,SW,235,3.0,7.0,67,0.00,,,-99.99,,2013-02-02 07:11:00,
2013-02-02 01:21:00,26.0,16.0,-100.00,West,270,2.0,4.0,67,0.00,,,-99.99,,2013-02-02 07:21:00,
2013-02-02 01:31:00,25.0,16.0,-100.00,West,270,1.0,4.0,68,0.00,,,-99.99,,2013-02-02 07:31:00,
2013-02-02 01:41:00,25.0,16.0,-100.00,West,270,1.0,4.0,68,0.00,,,-99.99,,2013-02-02 07:41:00,
2013-02-02 01:51:00,26.0,17.0,-100.00,WNW,300,4.0,6.0,68,0.00,,,-99.99,,2013-02-02 07:51:00,
2013-02-02 02:01:00,26.0,17.0,-100.00,WNW,300,4.0,6.0,68,0.00,,,-99.99,,2013-02-02 08:01:00,
2013-02-02 02:11:00,27.0,18.0,-100.00,WNW,300,6.0,8.0,68,0.00,,,-99.99,,2013-02-02 08:11:00,
2013-02-02 02:21:00,27.0,18.0,-100.00,NW,305,6.0,9.0,68,0.00,,,-99.99,,2013-02-02 08:21:00,
2013-02-02 02:31:00,25.0,17.0,-100.00,NNW,345,3.0,6.0,71,0.00,,,-99.99,,2013-02-02 08:31:00,
2013-02-02 02:41:00,25.0,17.0,-100.00,NNW,345,3.0,6.0,71,0.00,,,-99.99,,2013-02-02 08:41:00,
2013-02-02 02:52:00,24.0,17.0,-100.00,West,265,1.0,2.0,73,0.00,,,-99.99,,2013-02-02 08:52:00,
2013-02-02 03:01:00,24.0,17.0,-100.00,West,265,1.0,2.0,73,0.00,,,-99.99,,2013-02-02 09:01:00,
2013-02-02 03:11:00,24.0,18.0,-100.00,SW,220,1.0,2.0,75,0.00,,,-99.99,,2013-02-02 09:11:00,
2013-02-02 03:22:00,24.0,18.0,-100.00,SW,230,0.0,1.0,76,0.00,,,-99.99,,2013-02-02 09:22:00,
2013-02-02 03:31:00,25.0,19.0,-100.00,NW,325,2.0,4.0,77,0.00,,,-99.99,,2013-02-02 09:31:00,
2013-02-02 03:41:00,25.0,19.0,-100.00,NW,325,2.0,4.0,77,0.00,,,-99.99,,2013-02-02 09:41:00,
2013-02-02 03:52:00,26.0,20.0,-100.00,North,350,4.0,6.0,77,0.00,,,-99.99,,2013-02-02 09:52:00,
2013-02-02 04:01:00,26.0,20.0,-100.00,North,350,4.0,6.0,77,0.00,,,-99.99,,2013-02-02 10:01:00,
2013-02-02 04:11:00,25.0,19.0,-100.00,NNE,30,5.0,6.0,77,0.00,,,-99.99,,2013-02-02 10:11:00,
2013-02-02 04:21:00,26.0,20.0,-100.00,North,0,6.0,7.0,78,0.00,,,-99.99,,2013-02-02 10:21:00,
2013-02-02 04:31:00,26.0,20.0,-100.00,NNE,30,4.0,6.0,79,0.00,,,-99.99,,2013-02-02 10:31:00,
2013-02-02 04:41:00,26.0,20.0,-100.00,NNE,30,4.0,6.0,79,0.00,,,-99.99,,2013-02-02 10:41:00,
2013-02-02 04:51:00,26.0,21.0,-100.00,North,0,5.0,7.0,81,0.00,,,-99.99,,2013-02-02 10:51:00,
2013-02-02 05:01:00,26.0,21.0,-100.00,North,0,5.0,7.0,81,0.00,,,-99.99,,2013-02-02 11:01:00,
2013-02-02 05:11:00,26.0,21.0,-100.00,North,350,3.0,5.0,81,0.00,,,-99.99,,2013-02-02 11:11:00,
2013-02-02 05:21:00,26.0,21.0,-100.00,NNW,345,4.0,4.0,82,0.00,,,-99.99,,2013-02-02 11:21:00,
2013-02-02 05:32:00,27.0,22.0,-100.00,NW,320,7.0,8.0,83,0.00,,,-99.99,,2013-02-02 11:32:00,
2013-02-02 05:41:00,27.0,22.0,-100.00,NW,320,7.0,8.0,83,0.00,,,-99.99,,2013-02-02 11:41:00,
2013-02-02 05:52:00,27.0,23.0,-100.00,NW,305,5.0,7.0,82,0.00,,,-99.99,,2013-02-02 11:52:00,
2013-02-02 06:01:00,27.0,23.0,-100.00,NW,305,5.0,7.0,82,0.00,,,-99.99,,2013-02-02 12:01:00,
2013-02-02 06:11:00,28.0,23.0,-100.00,NW,315,6.0,9.0,81,0.00,,,-99.99,,2013-02-02 12:11:00,
2013-02-02 06:22:00,29.0,24.0,-100.00,NW,315,6.0,9.0,81,0.00,,,-99.99,,2013-02-02 12:22:00,
2013-02-02 06:32:00,28.0,23.0,-100.00,NNW,330,6.0,7.0,81,0.00,,,-99.99,,2013-02-02 12:32:00,
2013-02-02 06:42:00,28.0,23.0,-100.00,NNW,330,6.0,7.0,81,0.00,,,-99.99,,2013-02-02 12:42:00,
2013-02-02 06:52:00,28.0,23.0,-100.00,NNW,335,5.0,8.0,82,0.00,,,-99.99,,2013-02-02 12:52:00,
2013-02-02 07:02:00,28.0,23.0,-100.00,NNW,335,5.0,8.0,82,0.00,,,-99.99,,2013-02-02 13:02:00,
2013-02-02 07:11:00,28.0,24.0,-100.00,NNW,345,7.0,10.0,83,0.00,,,-99.99,,2013-02-02 13:11:00,
2013-02-02 07:21:00,28.0,24.0,-100.00,North,350,7.0,10.0,82,0.00,,,-99.99,,2013-02-02 13:21:00,
2013-02-02 07:32:00,28.0,23.0,-100.00,North,350,8.0,13.0,80,0.00,,,-99.99,,2013-02-02 13:32:00,
2013-02-02 07:42:00,28.0,23.0,-100.00,North,350,8.0,13.0,80,0.00,,,-99.99,,2013-02-02 13:42:00,
2013-02-02 07:51:00,28.0,23.0,-100.00,North,350,9.0,11.0,80,0.00,,,-99.99,,2013-02-02 13:51:00,
2013-02-02 08:02:00,28.0,23.0,-100.00,North,350,9.0,11.0,80,0.00,,,-99.99,,2013-02-02 14:02:00,
2013-02-02 08:11:00,28.0,23.0,-100.00,North,355,7.0,11.0,80,0.00,,,-99.99,,2013-02-02 14:11:00,
2013-02-02 08:22:00,28.0,23.0,-100.00,North,350,6.0,9.0,80,0.00,,,-99.99,,2013-02-02 14:22:00,
2013-02-02 08:32:00,28.0,22.0,-100.00,North,0,10.0,12.0,77,0.00,,,-99.99,,2013-02-02 14:32:00,
2013-02-02 08:42:00,28.0,22.0,-100.00,North,0,10.0,12.0,77,0.00,,,-99.99,,2013-02-02 14:42:00,
2013-02-02 08:52:00,28.0,22.0,-100.00,NNE,25,10.0,12.0,77,0.00,,,-99.99,,2013-02-02 14:52:00,
2013-02-02 09:03:00,28.0,22.0,-100.00,NNE,25,10.0,12.0,77,0.00,,,-99.99,,2013-02-02 15:03:00,
2013-02-02 09:12:00,28.0,22.0,-100.00,NNE,30,10.0,12.0,78,0.00,,,-99.99,,2013-02-02 15:12:00,
2013-02-02 09:22:00,27.0,21.0,-100.00,NE,35,14.0,17.0,76,0.00,,,-99.99,,2013-02-02 15:22:00,
2013-02-02 09:32:00,27.0,20.0,-100.00,NNE,30,13.0,19.0,74,0.00,,,-99.99,,2013-02-02 15:32:00,
2013-02-02 09:42:00,27.0,20.0,-100.00,NNE,30,13.0,19.0,74,0.00,,,-99.99,,2013-02-02 15:42:00,
2013-02-02 09:52:00,27.0,19.0,-100.00,NNE,15,16.0,19.0,72,0.00,,,-99.99,,2013-02-02 15:52:00,
2013-02-02 10:03:00,27.0,19.0,-100.00,NNE,15,16.0,19.0,72,0.00,,,-99.99,,2013-02-02 16:03:00,
2013-02-02 10:11:00,27.0,19.0,-100.00,NNE,15,13.0,20.0,72,0.00,,,-99.99,,2013-02-02 16:11:00,
2013-02-02 10:22:00,27.0,19.0,-100.00,NNE,15,13.0,16.0,71,0.00,,,-99.99,,2013-02-02 16:22:00,
2013-02-02 10:32:00,27.0,19.0,-100.00,NNE,20,10.0,13.0,71,0.00,,,-99.99,,2013-02-02 16:32:00,
2013-02-02 10:42:00,27.0,19.0,-100.00,NNE,20,10.0,13.0,71,0.00,,,-99.99,,2013-02-02 16:42:00,
2013-02-02 10:52:00,28.0,20.0,-100.00,NNE,15,7.0,10.0,71,0.00,,,-99.99,,2013-02-02 16:52:00,
2013-02-02 11:02:00,28.0,20.0,-100.00,NNE,15,7.0,10.0,71,0.00,,,-99.99,,2013-02-02 17:02:00,
2013-02-02 11:11:00,27.0,19.0,-100.00,North,0,6.0,11.0,70,0.00,,,-99.99,,2013-02-02 17:11:00,
2013-02-02 11:22:00,27.0,19.0,-100.00,North,10,6.0,9.0,69,0.00,,,-99.99,,2013-02-02 17:22:00,
2013-02-02 11:32:00,30.0,20.0,-100.00,ENE,60,4.0,6.0,66,0.00,,,-99.99,,2013-02-02 17:32:00,
2013-02-02 11:41:00,30.0,20.0,-100.00,ENE,60,4.0,6.0,66,0.00,,,-99.99,,2013-02-02 17:41:00,
2013-02-02 11:52:00,31.0,20.0,-100.00,East,95,1.0,3.0,63,0.00,,,-99.99,,2013-02-02 17:52:00,
2013-02-02 12:02:00,31.0,20.0,-100.00,East,95,1.0,3.0,63,0.00,,,-99.99,,2013-02-02 18:02:00,
2013-02-02 12:12:00,31.0,20.0,-100.00,NE,45,0.0,3.0,61,0.00,,,-99.99,,2013-02-02 18:12:00,
2013-02-02 12:22:00,31.0,19.0,-100.00,East,80,0.0,3.0,60,0.00,,,-99.99,,2013-02-02 18:22:00,
2013-02-02 12:32:00,29.0,18.0,-100.00,NNE,25,2.0,4.0,63,0.00,,,-99.99,,2013-02-02 18:32:00,
2013-02-02 12:42:00,29.0,18.0,-100.00,NNE,25,2.0,4.0,63,0.00,,,-99.99,,2013-02-02 18:42:00,
2013-02-02 12:52:00,31.0,20.0,-100.00,East,90,2.0,2.0,61,0.00,,,-99.99,,2013-02-02 18:52:00,
2013-02-02 13:02:00,31.0,20.0,-100.00,East,90,2.0,2.0,61,0.00,,,-99.99,,2013-02-02 19:02:00,
2013-02-02 13:12:00,30.0,19.0,-100.00,ESE,105,1.0,3.0,61,0.00,,,-99.99,,2013-02-02 19:12:00,
2013-02-02 13:21:00,31.0,20.0,-100.00,ENE,75,0.0,2.0,61,0.00,,,-99.99,,2013-02-02 19:21:00,
2013-02-02 13:32:00,31.0,20.0,-100.00,SW,230,1.0,4.0,61,0.00,,,-99.99,,2013-02-02 19:32:00,
2013-02-02 13:41:00,31.0,20.0,-100.00,SW,230,1.0,4.0,61,0.00,,,-99.99,,2013-02-02 19:41:00,
2013-02-02 13:51:00,32.0,20.0,-100.00,SSW,205,2.0,4.0,61,0.00,,,-99.99,,2013-02-02 19:51:00,
2013-02-02 14:01:00,32.0,20.0,-100.00,SSW,205,2.0,4.0,61,0.00,,,-99.99,,2013-02-02 20:01:00,
2013-02-02 14:11:00,32.0,20.0,-100.00,SSW,195,4.0,6.0,61,0.00,,,-99.99,,2013-02-02 20:11:00,
2013-02-02 14:21:00,32.0,21.0,-100.00,SW,230,4.0,8.0,63,0.00,,,-99.99,,2013-02-02 20:21:00,
2013-02-02 14:32:00,32.0,22.0,-100.00,WSW,245,5.0,7.0,65,0.00,,,-99.99,,2013-02-02 20:32:00,
2013-02-02 14:41:00,32.0,22.0,-100.00,WSW,245,5.0,7.0,65,0.00,,,-99.99,,2013-02-02 20:41:00,
2013-02-02 14:52:00,33.0,23.0,-100.00,WSW,250,6.0,7.0,66,0.00,,,-99.99,,2013-02-02 20:52:00,
2013-02-02 15:02:00,33.0,23.0,-100.00,WSW,250,6.0,7.0,66,0.00,,,-99.99,,2013-02-02 21:02:00,
2013-02-02 15:11:00,33.0,24.0,-100.00,SW,230,4.0,6.0,67,0.00,,,-99.99,,2013-02-02 21:11:00,
2013-02-02 15:21:00,34.0,25.0,-100.00,SW,230,5.0,7.0,67,0.00,,,-99.99,,2013-02-02 21:21:00,
2013-02-02 15:32:00,35.0,25.0,-100.00,South,190,4.0,9.0,67,0.00,,,-99.99,,2013-02-02 21:32:00,
2013-02-02 15:42:00,35.0,25.0,-100.00,South,190,4.0,9.0,67,0.00,,,-99.99,,2013-02-02 21:42:00,
2013-02-02 15:51:00,35.0,26.0,-100.00,SSW,200,4.0,7.0,67,0.00,,,-99.99,,2013-02-02 21:51:00,
2013-02-02 16:02:00,35.0,26.0,-100.00,SSW,200,4.0,7.0,67,0.00,,,-99.99,,2013-02-02 22:02:00,
2013-02-02 16:11:00,35.0,25.0,-100.00,SSW,205,6.0,7.0,67,0.00,,,-99.99,,2013-02-02 22:11:00,
2013-02-02 16:21:00,36.0,26.0,-100.00,South,180,5.0,6.0,67,0.00,,,-99.99,,2013-02-02 22:21:00,
2013-02-02 16:32:00,35.0,26.0,-100.00,South,175,6.0,9.0,68,0.00,,,-99.99,,2013-02-02 22:32:00,
2013-02-02 16:42:00,35.0,26.0,-100.00,South,175,6.0,9.0,68,0.00,,,-99.99,,2013-02-02 22:42:00,
2013-02-02 16:52:00,35.0,26.0,-100.00,South,185,9.0,11.0,70,0.00,,,-99.99,,2013-02-02 22:52:00,
2013-02-02 17:02:00,35.0,26.0,-100.00,South,185,9.0,11.0,70,0.00,,,-99.99,,2013-02-02 23:02:00,
2013-02-02 17:11:00,35.0,26.0,-100.00,South,170,9.0,12.0,71,0.00,,,-99.99,,2013-02-02 23:11:00,
2013-02-02 17:21:00,34.0,26.0,-100.00,South,180,8.0,13.0,73,0.00,,,-99.99,,2013-02-02 23:21:00,
2013-02-02 17:32:00,34.0,27.0,-100.00,SSE,165,5.0,9.0,76,0.00,,,-99.99,,2013-02-02 23:32:00,
2013-02-02 17:41:00,34.0,27.0,-100.00,SSE,165,5.0,9.0,76,0.00,,,-99.99,,2013-02-02 23:41:00,
2013-02-02 17:52:00,33.0,28.0,-100.00,South,185,9.0,11.0,79,0.00,,,-99.99,,2013-02-02 23:52:00,
2013-02-02 18:02:00,33.0,28.0,-100.00,South,185,9.0,11.0,79,0.00,,,-99.99,,2013-02-03 00:02:00,
2013-02-02 18:11:00,33.0,28.0,-100.00,South,190,9.0,10.0,82,0.00,,,-99.99,,2013-02-03 00:11:00,
2013-02-02 18:21:00,33.0,29.0,-100.00,SSE,165,6.0,9.0,83,0.00,,,-99.99,,2013-02-03 00:21:00,
2013-02-02 18:32:00,33.0,29.0,-100.00,SE,145,6.0,7.0,85,0.00,,,-99.99,,2013-02-03 00:32:00,
2013-02-02 18:41:00,33.0,29.0,-100.00,SE,145,6.0,7.0,85,0.00,,,-99.99,,2013-02-03 00:41:00,
2013-02-02 18:51:00,33.0,29.0,-100.00,SE,125,4.0,6.0,87,0.00,,,-99.99,,2013-02-03 00:51:00,
2013-02-02 19:02:00,33.0,29.0,-100.00,SE,125,4.0,6.0,87,0.00,,,-99.99,,2013-02-03 01:02:00,
2013-02-02 19:11:00,33.0,29.0,-100.00,SE,130,3.0,4.0,87,0.00,,,-99.99,,2013-02-03 01:11:00,
2013-02-02 19:21:00,33.0,29.0,-100.00,SE,135,3.0,6.0,87,0.00,,,-99.99,,2013-02-03 01:21:00,
2013-02-02 19:32:00,33.0,30.0,-100.00,East,85,5.0,14.0,89,0.00,,,-99.99,,2013-02-03 01:32:00,
2013-02-02 19:41:00,33.0,30.0,-100.00,East,85,5.0,14.0,89,0.00,,,-99.99,,2013-02-03 01:41:00,
2013-02-02 19:52:00,34.0,30.0,-100.00,North,0,5.0,6.0,86,0.00,,,-99.99,,2013-02-03 01:52:00,
2013-02-02 20:01:00,34.0,30.0,-100.00,North,0,5.0,6.0,86,0.00,,,-99.99,,2013-02-03 02:01:00,
2013-02-02 20:11:00,34.0,30.0,-100.00,NW,315,6.0,7.0,86,0.00,,,-99.99,,2013-02-03 02:11:00,
2013-02-02 20:21:00,33.0,30.0,-100.00,WNW,290,2.0,5.0,86,0.00,,,-99.99,,2013-02-03 02:21:00,
2013-02-02 20:32:00,32.0,29.0,-100.00,West,275,3.0,4.0,88,0.00,,,-99.99,,2013-02-03 02:32:00,
2013-02-02 20:41:00,32.0,29.0,-100.00,West,275,3.0,4.0,88,0.00,,,-99.99,,2013-02-03 02:41:00,
2013-02-02 20:52:00,32.0,29.0,-100.00,WNW,290,2.0,3.0,89,0.00,,,-99.99,,2013-02-03 02:52:00,
2013-02-02 21:02:00,32.0,29.0,-100.00,WNW,290,2.0,3.0,89,0.00,,,-99.99,,2013-02-03 03:02:00,
2013-02-02 21:11:00,31.0,29.0,-100.00,NW,320,4.0,6.0,90,0.00,,,-99.99,,2013-02-03 03:11:00,
2013-02-02 21:21:00,31.0,29.0,-100.00,ENE,75,3.0,7.0,91,0.00,,,-99.99,,2013-02-03 03:21:00,
2013-02-02 21:31:00,34.0,32.0,-100.00,North,355,7.0,7.0,90,0.00,,,-99.99,,2013-02-03 03:31:00,
2013-02-02 21:41:00,34.0,32.0,-100.00,North,355,7.0,7.0,90,0.00,,,-99.99,,2013-02-03 03:41:00,
2013-02-02 21:51:00,34.0,32.0,-100.00,North,355,7.0,7.0,90,0.00,,,-99.99,,2013-02-03 03:51:00,
2013-02-02 22:01:00,34.0,32.0,-100.00,North,355,7.0,7.0,90,0.00,,,-99.99,,2013-02-03 04:01:00,
2013-02-02 22:11:00,34.0,32.0,-100.00,North,355,7.0,7.0,90,0.00,,,-99.99,,2013-02-03 04:11:00,
2013-02-02 22:21:00,34.0,32.0,-100.00,North,355,7.0,7.0,90,0.00,,,-99.99,,2013-02-03 04:21:00,
2013-02-02 22:52:00,38.0,29.0,-100.00,NNW,335,16.0,22.0,67,0.00,,,-99.99,,2013-02-03 04:52:00,
2013-02-02 23:03:00,38.0,29.0,-100.00,NNW,335,16.0,22.0,67,0.00,,,-99.99,,2013-02-03 05:03:00,
2013-02-02 23:12:00,38.0,28.0,-100.00,NNW,340,15.0,22.0,67,0.00,,,-99.99,,2013-02-03 05:12:00,
2013-02-02 23:22:00,38.0,29.0,-100.00,NW,320,12.0,16.0,68,0.00,,,-99.99,,2013-02-03 05:22:00,
2013-02-02 23:32:00,37.0,29.0,-100.00,NW,320,14.0,19.0,70,0.00,,,-99.99,,2013-02-03 05:32:00,
2013-02-02 23:41:00,37.0,29.0,-100.00,NW,320,14.0,19.0,70,0.00,,,-99.99,,2013-02-03 05:41:00,
2013-02-02 23:52:00,38.0,29.0,-100.00,NW,315,15.0,20.0,67,0.00,,,-99.99,,2013-02-03 05:52:00,